Latest Weather Observations for Cape Leeuwin

IDW60801

Issued at 9:03 pm WST Friday 27 February 2015 (issued every 30 minutes, with the page automatically refreshed every 10 minutes)

About weather observations | Map of weather stations | Latest weather observations for WA | Other Formats
Station Details ID: 009518 Name: CAPE LEEUWIN Lat: -34.37 Lon: 115.14 Height: 13.0 m
Data from the previous 72 hours. | See also: Recent months at Cape Leeuwin
Date/Time
WST
Temp
°C
App
Temp
°C
Dew
Point
Rel
Hum
%
Delta-T
°C
Wind Press
QNH
hPa
Press
MSL
hPa
Rain
since 9 am
mm
Dir
 
Spd
km/h
Gust
km/h
Spd
kts
Gust
kts
27/09:00pm 19.3 14.5 14.5 74 2.8 SSE 33 44 18 24 1015.8 1015.7 0.0
27/08:30pm 19.5 14.8 14.3 72 3.0 SSE 32 43 17 23 1015.4 1015.3 0.0
27/08:00pm 19.5 14.4 13.7 69 3.3 SSE 33 43 18 23 1015.0 1014.9 0.0
27/07:30pm 19.5 14.6 13.7 69 3.3 SSE 32 43 17 23 1014.5 1014.4 0.0
27/07:00pm 19.7 14.7 13.4 67 3.6 SSE 32 43 17 23 1014.1 1014.0 0.0
27/06:30pm 19.8 14.8 14.1 69 3.3 SSE 33 43 18 23 1013.6 1013.5 0.0
27/06:00pm 20.1 15.4 14.8 71 3.1 SSE 33 43 18 23 1013.1 1013.0 0.0
27/05:30pm 20.6 16.2 15.6 73 3.0 S 33 43 18 23 1012.8 1012.7 0.0
27/05:00pm 22.4 19.0 15.9 66 3.9 S 28 35 15 19 1012.5 1012.4 0.0
27/04:30pm 22.9 20.2 15.6 63 4.4 S 24 32 13 17 1012.0 1011.9 0.0
27/04:00pm 23.6 21.0 16.0 62 4.6 SSW 24 30 13 16 1011.8 1011.7 0.0
27/03:30pm 24.1 21.5 15.9 60 5.0 SW 24 30 13 16 1011.5 1011.4 0.0
27/03:00pm 23.7 21.7 16.5 64 4.4 SW 22 26 12 14 1011.5 1011.4 0.0
27/02:30pm 22.7 21.0 15.7 64 4.2 SW 19 24 10 13 1011.3 1011.2 0.0
27/02:00pm 22.5 20.9 15.9 66 4.0 WSW 19 22 10 12 1011.3 1011.2 0.0
27/01:30pm 23.8 22.1 15.7 60 4.9 WSW 19 22 10 12 1011.2 1011.1 0.0
27/01:00pm 23.5 21.2 15.7 61 4.7 WSW 22 26 12 14 1011.2 1011.1 0.0
27/12:30pm 23.8 21.9 15.7 60 4.9 SW 20 24 11 13 1011.0 1010.9 0.0
27/12:00pm 23.2 21.1 15.2 60 4.8 WSW 20 22 11 12 1011.1 1011.0 0.0
27/11:30am 23.2 21.1 14.8 59 5.0 SW 19 24 10 13 1011.1 1011.0 0.0
27/11:00am 22.7 20.8 15.2 62 4.5 WSW 19 24 10 13 1011.0 1010.9 0.0
27/10:30am 22.6 20.8 15.6 64 4.2 WSW 19 22 10 12 1011.0 1010.9 0.0
27/10:00am 22.2 20.3 15.1 64 4.2 WSW 19 22 10 12 1011.0 1010.9 0.0
27/09:30am 22.1 19.8 14.6 62 4.4 SW 20 24 11 13 1010.6 1010.5 0.0
27/09:00am 21.9 20.5 15.5 67 3.8 SW 17 20 9 11 1010.3 1010.2 1.6
27/08:30am 21.2 19.5 14.7 66 3.8 SSW 17 22 9 12 1009.9 1009.8 1.6
27/08:00am 20.6 18.6 15.0 70 3.3 SSW 19 24 10 13 1009.8 1009.7 1.6
27/07:30am 20.0 17.3 14.7 71 3.1 SSW 22 28 12 15 1009.7 1009.6 1.6
27/07:00am 19.2 16.2 14.7 75 2.6 SSW 24 30 13 16 1009.5 1009.4 1.6
27/06:30am 19.1 16.2 15.0 77 2.4 SSW 24 32 13 17 1009.1 1009.0 1.6
27/06:00am 19.0 15.9 15.6 80 2.0 SSW 26 33 14 18 1008.9 1008.8 1.6
27/05:30am 18.9 15.4 15.5 80 2.0 SSW 28 32 15 17 1008.6 1008.5 1.6
27/05:00am 19.0 15.9 15.6 80 2.0 SSW 26 32 14 17 1008.2 1008.1 1.6
27/04:30am 19.0 15.3 15.1 78 2.3 SSW 28 33 15 18 1008.0 1007.9 1.6
27/04:00am 18.9 15.8 15.7 82 1.9 SSW 26 32 14 17 1007.8 1007.7 1.6
27/03:30am 19.3 16.5 16.3 83 1.8 SSW 26 32 14 17 1007.5 1007.4 1.6
27/03:00am 19.1 16.3 16.4 84 1.6 SSW 26 33 14 18 1007.2 1007.1 1.6
27/02:30am 19.1 16.7 16.4 84 1.6 S 24 32 13 17 1007.2 1007.1 1.6
27/02:00am 19.5 16.6 17.0 85 1.5 SSW 28 35 15 19 1007.5 1007.4 1.6
27/01:30am 19.6 17.7 16.6 83 1.8 S 22 30 12 16 1007.6 1007.5 1.6
27/01:00am 19.7 17.1 16.9 84 1.7 S 26 32 14 17 1007.9 1007.8 1.6
27/12:30am 19.8 17.8 17.3 85 1.5 S 24 32 13 17 1008.0 1007.9 1.6
27/12:00am 19.8 18.7 17.7 88 1.3 SSE 20 26 11 14 1007.7 1007.6 1.6
 
Date/Time
WST
Temp
°C
App
Temp
°C
Dew
Point
Rel
Hum
%
Delta-T
°C
Wind Press
QNH
hPa
Press
MSL
hPa
Rain
since 9 am
mm
Dir
 
Spd
km/h
Gust
km/h
Spd
kts
Gust
kts
26/11:30pm 19.8 17.8 17.5 86 1.4 SSE 24 32 13 17 1007.7 1007.6 1.6
26/11:00pm 20.0 18.2 17.9 88 1.3 SSE 24 30 13 16 1007.8 1007.7 1.6
26/10:30pm 20.0 17.8 17.9 88 1.3 SSE 26 32 14 17 1008.0 1007.9 1.6
26/10:00pm 20.0 17.8 17.9 88 1.3 SE 26 33 14 18 1007.9 1007.8 1.6
26/09:30pm 20.3 18.3 18.4 89 1.2 SSE 26 32 14 17 1008.3 1008.2 1.6
26/09:00pm 20.2 18.2 18.3 89 1.2 SE 26 32 14 17 1008.1 1008.0 1.6
26/08:30pm 20.2 18.2 18.3 89 1.2 SE 26 33 14 18 1007.9 1007.8 1.6
26/08:00pm 20.3 18.1 18.7 90 1.0 SE 28 33 15 18 1007.4 1007.3 1.6
26/07:30pm 20.3 18.0 18.5 89 1.1 SE 28 33 15 18 1007.4 1007.3 1.6
26/07:00pm 20.4 18.2 18.6 89 1.1 SE 28 33 15 18 1007.2 1007.1 1.6
26/06:30pm 20.7 18.5 18.8 89 1.2 SSE 28 35 15 19 1007.2 1007.1 1.6
26/06:00pm 20.9 18.7 18.8 88 1.3 SSE 28 35 15 19 1007.1 1007.0 1.6
26/05:30pm 21.2 19.8 18.8 86 1.5 SSE 24 30 13 16 1007.0 1006.9 1.6
26/05:00pm 21.7 20.3 18.8 83 1.8 SSE 24 30 13 16 1006.9 1006.8 1.6
26/04:30pm 22.0 20.6 18.8 82 2.0 SSE 24 32 13 17 1006.9 1006.8 1.6
26/04:00pm 22.4 21.7 18.6 79 2.4 SSE 20 26 11 14 1006.9 1006.8 1.6
26/03:30pm 22.6 21.7 18.3 76 2.7 SE 20 24 11 13 1006.7 1006.6 1.6
26/03:00pm 23.0 22.1 18.2 74 3.0 SE 20 26 11 14 1006.7 1006.6 1.4
26/02:30pm 23.2 22.6 18.8 76 2.8 SE 20 26 11 14 1007.1 1007.0 1.4
26/02:00pm 22.1 21.4 18.6 80 2.2 SSE 20 28 11 15 1007.4 1007.3 1.4
26/01:30pm 21.2 21.0 19.3 89 1.2 SE 19 24 10 13 1007.4 1007.3 1.4
26/01:00pm 21.9 22.0 19.2 85 1.7 SE 17 22 9 12 1007.8 1007.7 1.4
26/12:30pm 20.4 20.2 18.5 89 1.2 SE 17 22 9 12 1007.8 1007.7 1.4
26/12:00pm 19.9 19.7 18.5 92 0.9 SSE 17 22 9 12 1008.4 1008.3 1.4
26/11:30am 20.2 19.1 17.8 86 1.5 ESE 20 26 11 14 1008.2 1008.1 0.6
26/11:00am 19.9 18.6 18.1 89 1.1 SSE 22 26 12 14 1008.4 1008.3 0.6
26/10:30am 19.4 17.4 18.3 93 0.7 E 26 39 14 21 1008.8 1008.7 0.6
26/10:29am 19.4 17.4 18.3 93 0.7 E 26 39 14 21 1008.7 1008.6 0.6
26/10:00am 19.2 14.4 17.6 90 1.0 E 39 44 21 24 1007.6 1007.5 0.6
26/09:30am 19.4 14.3 17.8 90 1.0 E 41 50 22 27 1007.3 1007.2 0.4
26/09:00am 19.5 17.1 17.4 88 1.3 ESE 26 35 14 19 1008.5 1008.4 0.6
26/08:30am 19.6 16.8 17.3 86 1.4 SSE 28 35 15 19 1008.7 1008.6 0.6
26/08:27am 19.6 17.6 17.5 88 1.3 SSE 24 32 13 17 1009.0 1008.9 0.6
26/08:00am 19.4 19.1 17.3 88 1.3 SE 15 28 8 15 1010.3 1010.2 0.6
26/07:30am 19.6 17.1 17.1 85 1.5 E 26 33 14 18 1010.1 1010.0 0.6
26/07:22am 19.6 14.7 17.3 86 1.4 E 39 50 21 27 1009.2 1009.1 0.6
26/07:00am 19.3 12.6 17.0 86 1.4 E 48 56 26 30 1007.2 1007.1 0.6
26/06:30am 19.4 12.8 17.4 88 1.2 E 48 56 26 30 1007.0 1006.9 0.6
26/06:00am 19.4 15.6 17.3 88 1.3 ESE 33 44 18 24 1008.5 1008.4 0.4
26/05:30am 19.1 17.4 17.1 88 1.2 SSE 22 33 12 18 1010.3 1010.2 0.4
26/05:17am 19.1 17.4 17.3 89 1.1 SSE 22 30 12 16 1010.3 1010.2 0.4
26/05:00am 19.6 16.3 17.1 85 1.5 SE 30 37 16 20 1008.3 1008.2 0.2
26/04:30am 19.5 14.9 17.0 85 1.5 ESE 37 44 20 24 1007.1 1007.0 0.2
26/04:00am 19.4 15.8 17.1 86 1.4 ESE 32 41 17 22 1007.9 1007.8 0.2
26/03:30am 19.6 15.6 16.8 84 1.7 ESE 33 39 18 21 1008.8 1008.7 0.2
26/03:00am 19.6 15.7 17.0 85 1.6 ESE 33 41 18 22 1008.0 1007.9 0.2
26/02:30am 19.6 15.7 17.0 85 1.6 ESE 33 41 18 22 1008.2 1008.1 0.2
26/02:00am 19.6 15.9 17.0 85 1.6 SE 32 37 17 20 1008.5 1008.4 0.2
26/01:30am 19.9 16.6 17.1 84 1.7 ESE 30 37 16 20 1009.3 1009.2 0.2
26/01:00am 19.9 16.3 17.1 84 1.7 ESE 32 39 17 21 1009.6 1009.5 0.2
26/12:30am 20.1 15.9 17.2 83 1.8 ESE 35 41 19 22 1009.4 1009.3 0.2
26/12:00am 20.1 16.3 17.3 84 1.7 ESE 33 41 18 22 1009.3 1009.2 0.2
 
Date/Time
WST
Temp
°C
App
Temp
°C
Dew
Point
Rel
Hum
%
Delta-T
°C
Wind Press
QNH
hPa
Press
MSL
hPa
Rain
since 9 am
mm
Dir
 
Spd
km/h
Gust
km/h
Spd
kts
Gust
kts
25/11:30pm 20.1 16.3 17.2 83 1.8 ESE 33 41 18 22 1009.4 1009.3 0.2
25/11:00pm 20.2 16.0 17.1 82 1.9 ESE 35 44 19 24 1009.4 1009.3 0.2
25/10:30pm 20.2 15.1 16.9 81 2.0 ESE 39 50 21 27 1009.9 1009.8 0.2
25/10:00pm 20.3 15.4 17.2 82 1.9 ESE 39 50 21 27 1010.2 1010.1 0.2
25/09:30pm 20.2 14.1 16.7 80 2.1 ESE 44 54 24 29 1010.5 1010.4 0.2
25/09:00pm 20.1 13.7 15.9 77 2.5 ESE 44 56 24 30 1010.6 1010.5 0.2
25/08:30pm 20.1 13.6 16.5 80 2.2 ESE 46 56 25 30 1010.6 1010.5 0.2
25/08:00pm 20.1 14.5 16.5 80 2.2 ESE 41 52 22 28 1010.5 1010.4 0.2
25/07:30pm 20.1 14.1 16.5 80 2.2 SE 43 54 23 29 1009.8 1009.7 0.2
25/07:00pm 20.2 14.6 16.4 79 2.3 SE 41 52 22 28 1009.6 1009.5 0.2
25/06:30pm 20.3 14.3 16.5 79 2.3 SE 43 52 23 28 1009.5 1009.4 0.2
25/06:00pm 20.4 15.1 16.2 77 2.5 SE 39 48 21 26 1009.9 1009.8 0.2
25/05:30pm 20.6 15.2 15.9 74 2.8 SE 39 50 21 27 1010.0 1009.9 0.2
25/05:00pm 21.6 16.1 15.8 69 3.5 SE 39 50 21 27 1010.2 1010.1 0.2
25/04:30pm 21.8 17.0 15.6 68 3.7 SE 35 46 19 25 1010.3 1010.2 0.2
25/04:00pm 21.5 16.0 15.8 70 3.4 SE 39 46 21 25 1010.2 1010.1 0.2
25/03:30pm 22.5 17.3 15.5 64 4.2 SE 37 44 20 24 1010.1 1010.0 0.2
25/03:00pm 21.8 16.2 15.4 67 3.8 SE 39 48 21 26 1010.3 1010.2 0.2
25/02:30pm 22.4 16.8 15.4 64 4.2 SE 39 48 21 26 1010.4 1010.3 0.2
25/02:00pm 22.9 17.3 15.6 63 4.4 SE 39 46 21 25 1010.7 1010.6 0.2
25/01:30pm 22.8 17.7 15.7 64 4.3 SE 37 46 20 25 1010.8 1010.7 0.2
25/01:00pm 22.4 16.8 15.4 64 4.2 SE 39 46 21 25 1010.8 1010.7 0.2
25/12:30pm 23.1 17.9 15.6 62 4.5 SE 37 44 20 24 1011.0 1010.9 0.2
25/12:00pm 22.9 17.8 15.8 64 4.3 SE 37 46 20 25 1011.3 1011.2 0.2
25/11:30am 22.6 17.8 15.6 64 4.2 SE 35 44 19 24 1011.8 1011.7 0.2
25/11:00am 22.3 17.8 15.3 64 4.2 SE 33 43 18 23 1012.0 1011.9 0.0
25/10:30am 21.8 17.3 15.4 67 3.8 SE 33 41 18 22 1012.1 1012.0 0.0
25/10:00am 21.3 16.8 15.4 69 3.5 SE 33 41 18 22 1012.0 1011.9 0.0
25/09:30am 20.9 16.6 15.5 71 3.2 SE 32 43 17 23 1011.8 1011.7 0.0
25/09:00am 20.8 16.4 15.2 70 3.3 SE 32 39 17 21 1011.8 1011.7 0.0
25/08:30am 20.6 16.4 15.7 73 2.9 SE 32 39 17 21 1011.6 1011.5 0.0
25/08:00am 19.9 15.6 15.5 76 2.6 SE 32 39 17 21 1011.5 1011.4 0.0
25/07:30am 19.7 15.5 15.7 78 2.4 SE 32 39 17 21 1011.5 1011.4 0.0
25/07:00am 19.5 15.8 16.0 80 2.1 SE 30 35 16 19 1011.4 1011.3 0.0
25/06:30am 19.3 16.0 16.1 82 1.9 SSE 28 35 15 19 1011.2 1011.1 0.0
25/06:00am 19.2 15.8 15.8 81 2.0 SSE 28 35 15 19 1010.8 1010.7 0.0
25/05:30am 19.2 16.6 15.8 81 2.0 SSE 24 32 13 17 1010.4 1010.3 0.0
25/05:00am 19.2 16.7 16.2 83 1.8 SSE 24 33 13 18 1009.8 1009.7 0.0
25/04:30am 19.4 16.9 16.2 82 1.9 SSE 24 30 13 16 1010.0 1009.9 0.0
25/04:00am 19.3 16.7 15.9 81 2.0 SSE 24 32 13 17 1010.1 1010.0 0.0
25/03:30am 19.6 17.2 16.4 82 1.9 SSE 24 30 13 16 1010.0 1009.9 0.0
25/03:00am 19.7 17.0 16.5 82 1.9 SSE 26 30 14 16 1009.9 1009.8 0.0
25/02:30am 19.8 16.8 16.7 82 1.9 SE 28 35 15 19 1009.5 1009.4 0.0
25/02:00am 19.8 16.8 16.8 83 1.8 SE 28 35 15 19 1009.8 1009.7 0.0
25/01:30am 19.9 17.7 16.8 82 1.9 SE 24 33 13 18 1010.8 1010.7 0.0
25/01:00am 19.7 16.8 17.1 85 1.6 SSE 28 37 15 20 1009.6 1009.5 0.0
25/12:30am 19.7 16.0 17.4 86 1.4 SE 33 46 18 25 1009.4 1009.3 0.0
25/12:00am 19.8 17.0 17.3 85 1.5 SSE 28 46 15 25 1010.6 1010.5 0.0
 
Date/Time
WST
Temp
°C
App
Temp
°C
Dew
Point
Rel
Hum
%
Delta-T
°C
Wind Press
QNH
hPa
Press
MSL
hPa
Rain
since 9 am
mm
Dir
 
Spd
km/h
Gust
km/h
Spd
kts
Gust
kts
24/11:59pm 19.8 17.1 17.5 86 1.4 SSE 28 46 15 25 1010.7 1010.6 0.0
24/11:30pm 20.2 17.4 17.3 83 1.8 SE 28 35 15 19 1010.2 1010.1 0.0
24/11:00pm 20.3 16.6 17.0 81 2.0 SE 32 37 17 20 1010.4 1010.3 0.0
24/10:30pm 20.4 17.3 17.5 83 1.8 SE 30 39 16 21 1010.9 1010.8 0.0
24/10:00pm 20.4 17.3 17.5 83 1.8 SE 30 35 16 19 1010.7 1010.6 0.0
24/09:30pm 20.5 17.9 17.9 85 1.6 SE 28 35 15 19 1010.5 1010.4 0.0

Other Formats:

Comma delimited format used in spreadsheet applications
http://www.bom.gov.au/fwo/IDW60801/IDW60801.94601.axf

JavaScript Object Notation format (JSON) in row-major order
http://www.bom.gov.au/fwo/IDW60801/IDW60801.94601.json